Time;durP1;ratioP1;P1;durP2;ratioP2;P2;SDS_P1;SDS_P2;PMS_P1;PMS_P2;Temp;Humidity;BMP_temperature;BMP_pressure;BME280_temperature;BME280_humidity;BME280_pressure;Samples;Min_cycle;Max_cycle;Signal;HPM_P1;HPM_P2
2022/06/10 00:00:03;;;;;;;14.68;11.13;;;;;;;11.24;100.00;68017.34;5035167;28;20057;-82
2022/06/10 00:02:28;;;;;;;14.45;11.85;;;;;;;;;;5021158;28;20061;-82
2022/06/10 00:04:53;;;;;;;15.45;11.70;;;;;;;11.18;100.00;68009.97;5019627;28;20075;-82
2022/06/10 00:07:19;;;;;;;15.40;11.75;;;;;;;11.09;100.00;68000.31;5020956;28;20326;-82
2022/06/10 00:09:44;;;;;;;15.80;11.05;;;;;;;11.11;100.00;68007.38;5034795;28;20060;-82
2022/06/10 00:12:10;;;;;;;13.13;11.25;;;;;;;11.13;100.00;68004.28;5036995;28;20112;-82
2022/06/10 00:14:35;;;;;;;14.38;11.15;;;;;;;;;;5036587;28;20037;-82
2022/06/10 00:17:00;;;;;;;18.90;11.55;;;;;;;;;;5024125;28;20052;-82
2022/06/10 00:19:26;;;;;;;16.80;11.73;;;;;;;11.01;100.00;67986.47;5003226;28;20061;-82
2022/06/10 00:21:51;;;;;;;19.23;11.40;;;;;;;11.02;100.00;67998.28;5027744;28;20044;-82
2022/06/10 00:24:17;;;;;;;16.08;11.73;;;;;;;10.99;100.00;67994.28;5020137;28;20120;-82
2022/06/10 00:26:42;;;;;;;18.20;10.90;;;;;;;;;;5033040;28;20037;-82
2022/06/10 00:29:07;;;;;;;13.63;11.07;;;;;;;;;;5037743;28;20167;-82
2022/06/10 00:31:32;;;;;;;14.90;10.60;;;;;;;10.90;100.00;67979.31;5035879;28;20101;-82
2022/06/10 00:33:58;;;;;;;14.98;11.82;;;;;;;10.89;100.00;67978.19;5035811;28;20246;-82
2022/06/10 00:36:23;;;;;;;17.63;11.50;;;;;;;10.83;100.00;67971.94;5034287;28;20045;-82
2022/06/10 00:38:49;;;;;;;15.10;12.18;;;;;;;10.81;100.00;67974.44;5025419;28;20042;-82
2022/06/10 00:41:15;;;;;;;15.32;11.43;;;;;;;;;;5034846;28;20562;-82
2022/06/10 00:43:40;;;;;;;17.08;12.27;;;;;;;;;;5032672;28;20056;-82
2022/06/10 00:46:14;;;;;;;16.77;12.35;;;;;;;10.79;100.00;67966.84;5029883;28;20029;-82
2022/06/10 00:48:53;;;;;;;16.55;11.82;;;;;;;10.78;100.00;67971.59;5018448;28;20057;-82
2022/06/10 00:51:24;;;;;;;17.27;11.60;;;;;;;10.82;100.00;67976.13;5027358;28;20045;-82
2022/06/10 00:53:52;;;;;;;16.33;10.23;;;;;;;;;;5026545;28;20045;-82
2022/06/10 00:56:20;;;;;;;14.90;11.95;;;;;;;;;;5034414;28;20087;-82
2022/06/10 00:58:45;;;;;;;17.15;11.40;;;;;;;;;;5033697;28;20523;-82
2022/06/10 01:01:12;;;;;;;13.13;9.77;;;;;;;10.73;100.00;67965.34;5029905;28;20109;-82
2022/06/10 01:03:38;;;;;;;13.70;10.65;;;;;;;;;;5024426;28;20046;-82
2022/06/10 01:06:04;;;;;;;13.60;10.80;;;;;;;;;;5013600;28;20042;-82
2022/06/10 01:08:29;;;;;;;15.68;11.77;;;;;;;10.63;100.00;67948.69;5021388;28;20531;-82
2022/06/10 01:11:13;;;;;;;17.75;11.85;;;;;;;10.58;100.00;67948.91;5012876;28;20677;-82
2022/06/10 01:13:57;;;;;;;14.93;12.10;;;;;;;;;;5015152;28;20038;-82
2022/06/10 01:16:41;;;;;;;14.00;12.38;;;;;;;;;;4978662;28;20076;-82
2022/06/10 01:19:14;;;;;;;13.60;10.93;;;;;;;10.49;100.00;67938.69;5026792;28;20456;-82
2022/06/10 01:22:26;;;;;;;15.13;11.82;;;;;;;10.47;100.00;67937.00;5008804;28;20044;-82
2022/06/10 01:25:13;;;;;;;14.88;11.65;;;;;;;10.45;100.00;67926.16;5013806;28;20053;-82
2022/06/10 01:28:16;;;;;;;15.23;11.30;;;;;;;10.44;100.00;67927.69;5026262;28;20045;-83
2022/06/10 01:30:49;;;;;;;17.48;11.32;;;;;;;10.41;100.00;67932.25;5012469;28;20728;-82
2022/06/10 01:33:56;;;;;;;15.70;11.57;;;;;;;10.40;100.00;67929.03;4969629;28;20056;-82
2022/06/10 01:36:45;;;;;;;15.75;11.32;;;;;;;10.41;100.00;67930.16;5002053;28;20029;-82
2022/06/10 01:39:37;;;;;;;19.90;12.60;;;;;;;10.44;100.00;67928.25;5016728;28;20044;-82
2022/06/10 01:42:11;;;;;;;16.20;12.05;;;;;;;10.45;100.00;67934.72;5015210;28;20052;-82
2022/06/10 01:44:58;;;;;;;16.13;11.63;;;;;;;10.36;100.00;67924.50;5033614;28;20037;-82
2022/06/10 01:47:28;;;;;;;15.25;12.07;;;;;;;10.36;100.00;67925.06;5018632;28;20104;-82
2022/06/10 01:50:00;;;;;;;16.98;11.43;;;;;;;;;;5026943;28;20049;-82
2022/06/10 01:52:42;;;;;;;19.15;12.45;;;;;;;;;;5034728;28;20041;-82
2022/06/10 01:55:18;;;;;;;15.15;13.50;;;;;;;10.33;100.00;67915.78;5032117;28;20041;-82
2022/06/10 01:57:58;;;;;;;16.67;13.50;;;;;;;;;;5033688;28;20041;-82
2022/06/10 02:00:27;;;;;;;17.50;14.02;;;;;;;10.31;100.00;67919.41;5034774;28;20083;-82
2022/06/10 02:03:01;;;;;;;17.08;12.98;;;;;;;;;;5034244;28;20033;-82
2022/06/10 02:05:31;;;;;;;17.00;12.93;;;;;;;10.23;100.00;67904.97;5025643;28;20033;-82
2022/06/10 02:08:35;;;;;;;17.08;12.90;;;;;;;10.19;100.00;67905.19;5032866;28;20053;-82
2022/06/10 02:11:14;;;;;;;18.02;12.52;;;;;;;10.10;100.00;67888.16;5018589;28;20050;-82
2022/06/10 02:13:49;;;;;;;16.83;12.75;;;;;;;10.11;100.00;67897.25;5030252;28;20033;-83
2022/06/10 02:16:16;;;;;;;17.63;12.70;;;;;;;;;;5016603;28;20041;-83
2022/06/10 02:18:48;;;;;;;18.13;13.15;;;;;;;10.08;100.00;67893.84;5024176;28;20038;-82
2022/06/10 02:21:44;;;;;;;19.77;13.55;;;;;;;10.07;100.00;67892.72;5023367;28;20033;-82
2022/06/10 02:24:25;;;;;;;16.30;11.63;;;;;;;10.01;100.00;67885.91;5014875;28;20057;-83
2022/06/10 02:26:54;;;;;;;18.10;13.63;;;;;;;10.02;100.00;67881.72;5022143;28;20453;-83
2022/06/10 02:29:21;;;;;;;17.40;12.00;;;;;;;;;;5026266;28;20279;-82
2022/06/10 02:31:52;;;;;;;13.63;12.10;;;;;;;10.02;100.00;67879.06;5033559;28;20034;-83
2022/06/10 02:34:18;;;;;;;19.30;12.77;;;;;;;10.01;100.00;67885.34;5036288;28;20515;-82
2022/06/10 02:37:04;;;;;;;16.50;12.93;;;;;;;9.96;100.00;67874.38;5034545;28;20033;-83
2022/06/10 02:39:33;;;;;;;18.95;13.02;;;;;;;;;;5035938;28;20508;-83
2022/06/10 02:42:21;;;;;;;18.38;13.02;;;;;;;9.97;100.00;67880.81;5032552;28;20286;-83
2022/06/10 02:44:55;;;;;;;14.30;12.60;;;;;;;;;;4996422;28;20134;-83
2022/06/10 02:47:49;;;;;;;16.08;12.57;;;;;;;9.97;100.00;67876.06;5017515;28;20755;-83
2022/06/10 02:50:16;;;;;;;15.80;12.20;;;;;;;;;;4998552;28;20041;-83
2022/06/10 02:52:42;;;;;;;15.55;12.55;;;;;;;9.88;100.00;67865.84;5027157;28;20580;-82
2022/06/10 02:55:14;;;;;;;18.83;14.00;;;;;;;9.90;100.00;67873.44;5022228;28;20041;-82
2022/06/10 03:03:26;;;;;;;16.70;13.45;;;;;;;9.88;100.00;67866.41;5016107;28;20412;-83
2022/06/10 03:06:01;;;;;;;17.42;13.50;;;;;;;9.88;100.00;67871.16;5033321;28;20045;-82
2022/06/10 03:08:35;;;;;;;15.73;12.75;;;;;;;9.83;100.00;67866.06;5031342;28;20049;-82
2022/06/10 03:11:32;;;;;;;17.23;12.63;;;;;;;9.74;100.00;67855.28;5015362;28;20807;-83
2022/06/10 03:14:26;;;;;;;20.35;13.35;;;;;;;9.80;100.00;67862.09;5021446;28;20505;-82
2022/06/10 03:16:51;;;;;;;15.43;12.38;;;;;;;;;;5015624;28;20044;-83
2022/06/10 03:19:31;;;;;;;15.70;12.70;;;;;;;9.75;100.00;67856.41;5017875;28;20058;-82
2022/06/10 03:22:14;;;;;;;14.88;12.45;;;;;;;;;;5013280;28;20368;-82
2022/06/10 03:24:40;;;;;;;17.02;13.05;;;;;;;;;;5025704;28;20041;-82
2022/06/10 03:27:18;;;;;;;16.35;12.68;;;;;;;;;;5029839;28;20049;-83
2022/06/10 03:29:59;;;;;;;15.32;12.15;;;;;;;;;;5010337;28;20053;-82
2022/06/10 03:32:39;;;;;;;17.10;13.20;;;;;;;9.84;100.00;67866.63;4994559;28;20065;-83
2022/06/10 03:35:14;;;;;;;15.20;12.77;;;;;;;9.83;100.00;67868.16;5030093;28;20373;-83
2022/06/10 03:37:41;;;;;;;16.92;13.18;;;;;;;9.86;100.00;67864.13;5017882;28;20084;-83
2022/06/10 03:40:07;;;;;;;16.17;13.07;;;;;;;;;;5030632;28;20070;-82
2022/06/10 03:42:33;;;;;;;18.92;14.40;;;;;;;;;;5029702;28;20869;-83
2022/06/10 03:44:59;;;;;;;23.65;14.07;;;;;;;10.02;100.00;67887.03;5032958;28;20034;-83
2022/06/10 03:47:29;;;;;;;21.23;18.98;;;;;;;10.17;100.00;67895.50;5011222;28;20061;-83
2022/06/10 03:50:17;;;;;;;26.42;18.55;;;;;;;10.26;100.00;67913.69;5024771;28;20034;-83
2022/06/10 03:52:44;;;;;;;25.30;18.15;;;;;;;10.39;100.00;67922.59;5032789;28;20033;-83
2022/06/10 03:55:14;;;;;;;23.52;17.58;;;;;;;10.46;100.00;67930.53;5028171;28;20045;-83
2022/06/10 03:57:40;;;;;;;23.55;18.60;;;;;;;;;;5022092;28;20076;-83
2022/06/10 04:00:05;;;;;;;24.83;19.88;;;;;;;;;;5010364;28;20378;-83
2022/06/10 04:02:30;;;;;;;27.00;20.77;;;;;;;10.71;100.00;67963.66;5025775;28;20049;-83
2022/06/10 04:04:56;;;;;;;29.20;20.48;;;;;;;10.79;100.00;67966.84;5029731;28;20038;-83
2022/06/10 04:07:21;;;;;;;25.20;18.75;;;;;;;10.86;100.00;67982.78;5023196;28;20041;-83
2022/06/10 04:09:47;;;;;;;26.13;19.48;;;;;;;10.96;100.00;67985.56;5012237;28;20077;-84
2022/06/10 04:12:13;;;;;;;25.73;20.92;;;;;;;11.04;100.00;67995.22;5028080;28;20055;-84
2022/06/10 04:14:39;;;;;;;26.40;21.05;;;;;;;11.14;100.00;68010.78;5027058;28;20108;-84
2022/06/10 04:17:05;;;;;;;26.60;19.70;;;;;;;11.25;100.00;68017.94;5030067;28;21268;-84
2022/06/10 04:19:30;;;;;;;25.13;20.23;;;;;;;11.37;100.00;68036.31;5027127;28;20657;-84
2022/06/10 04:21:56;;;;;;;26.30;19.08;;;;;;;11.49;100.00;68044.59;5019026;28;20099;-85
2022/06/10 04:24:21;;;;;;;29.27;20.23;;;;;;;11.57;100.00;68050.47;5011139;28;20029;-84
2022/06/10 04:26:47;;;;;;;25.25;18.77;;;;;;;11.72;100.00;68070.72;5030744;28;20053;-85
2022/06/10 04:29:15;;;;;;;21.60;17.35;;;;;;;11.85;100.00;68084.94;5012861;28;20045;-84
2022/06/10 04:31:40;;;;;;;26.45;18.52;;;;;;;11.95;100.00;68101.06;5012184;28;20069;-85
2022/06/10 04:34:06;;;;;;;24.40;17.95;;;;;;;;;;5012313;28;20087;-83
2022/06/10 04:36:32;;;;;;;24.07;19.63;;;;;;;12.12;100.00;68119.81;5020842;28;20049;-85
2022/06/10 04:38:57;;;;;;;24.33;18.40;;;;;;;12.23;100.00;68131.75;5014180;28;20329;-84
2022/06/10 04:41:23;;;;;;;22.45;17.80;;;;;;;12.26;100.00;68130.41;5033481;28;20037;-84
2022/06/10 04:43:49;;;;;;;23.40;15.77;;;;;;;;;;5027783;28;20061;-84
2022/06/10 04:46:34;;;;;;;26.17;17.58;;;;;;;;;;5010421;28;20041;-84
2022/06/10 04:48:59;;;;;;;20.42;16.70;;;;;;;;;;5033203;28;20096;-84
2022/06/10 04:51:25;;;;;;;27.30;18.10;;;;;;;12.58;100.00;68173.63;5030673;28;20536;-85
2022/06/10 04:53:50;;;;;;;23.70;16.23;;;;;;;;;;5034249;28;20064;-84
2022/06/10 04:56:16;;;;;;;24.23;15.73;;;;;;;12.69;100.00;68182.88;5032235;28;20029;-84
2022/06/10 04:58:41;;;;;;;27.40;15.75;;;;;;;12.77;100.00;68184.53;5034196;28;20064;-84
2022/06/10 05:01:07;;;;;;;22.15;15.52;;;;;;;12.81;100.00;68191.78;5037097;28;20117;-85
2022/06/10 05:03:32;;;;;;;22.23;15.25;;;;;;;12.85;100.00;68196.31;5034443;28;20045;-85
2022/06/10 05:05:57;;;;;;;24.10;16.00;;;;;;;;;;5029857;28;20136;-85
2022/06/10 05:08:23;;;;;;;21.52;15.07;;;;;;;12.93;100.00;68201.59;5032273;28;20049;-85
2022/06/10 05:10:48;;;;;;;19.77;13.65;;;;;;;12.96;100.00;68207.69;5037440;28;20045;-85
2022/06/10 05:13:16;;;;;;;20.90;15.20;;;;;;;;;;5036251;28;20053;-85
2022/06/10 05:15:42;;;;;;;29.30;15.30;;;;;;;13.03;100.00;68215.63;5037914;28;20044;-86
2022/06/10 05:18:08;;;;;;;17.83;13.88;;;;;;;;;;5035040;28;20041;-85
2022/06/10 05:20:38;;;;;;;20.55;15.07;;;;;;;13.11;100.00;68224.72;5019424;28;20076;-85
2022/06/10 05:23:05;;;;;;;19.73;14.10;;;;;;;13.14;100.00;68225.47;4998894;28;20046;-86
2022/06/10 05:25:31;;;;;;;21.30;13.27;;;;;;;13.15;100.00;68229.28;5035493;28;20049;-85
2022/06/10 05:27:57;;;;;;;18.60;14.05;;;;;;;;;;5025251;28;20034;-86
2022/06/10 05:30:23;;;;;;;19.40;13.45;;;;;;;;;;5029336;28;20045;-84
2022/06/10 05:32:49;;;;;;;17.02;12.05;;;;;;;;;;5030847;28;20037;-84
2022/06/10 05:35:15;;;;;;;18.95;12.23;;;;;;;13.31;100.00;68242.16;5025528;28;20033;-85
2022/06/10 05:37:41;;;;;;;19.85;12.10;;;;;;;13.35;100.00;68250.91;5027094;28;20033;-86
2022/06/10 05:40:07;;;;;;;16.95;11.40;;;;;;;;;;5028870;28;20123;-86
2022/06/10 05:42:32;;;;;;;15.60;10.52;;;;;;;;;;5024608;28;20547;-86
2022/06/10 05:44:57;;;;;;;15.15;9.45;;;;;;;13.46;100.00;68263.97;5024393;28;20045;-85
2022/06/10 05:47:30;;;;;;;15.57;9.68;;;;;;;13.52;100.00;68270.81;5032902;28;20037;-86
2022/06/10 05:49:59;;;;;;;16.48;8.75;;;;;;;13.57;100.00;68275.94;5027506;28;20092;-86
2022/06/10 05:52:27;;;;;;;14.50;9.30;;;;;;;13.60;100.00;68278.78;5028299;28;20037;-85
2022/06/10 05:54:56;;;;;;;18.17;9.63;;;;;;;13.59;100.00;68274.97;5020596;28;20049;-86
2022/06/10 05:57:23;;;;;;;18.05;8.65;;;;;;;13.66;100.00;68293.63;5028369;28;20037;-86
2022/06/10 05:59:49;;;;;;;13.82;8.30;;;;;;;13.69;100.00;68289.00;5026334;28;20041;-86
2022/06/10 06:02:15;;;;;;;14.93;8.48;;;;;;;13.74;100.00;68295.28;5027316;28;20041;-86
2022/06/10 06:04:42;;;;;;;15.45;8.43;;;;;;;13.74;100.00;68292.03;5023356;28;20124;-86
2022/06/10 06:07:07;;;;;;;14.57;8.63;;;;;;;13.79;100.00;68294.47;5022039;28;20485;-85
2022/06/10 06:09:33;;;;;;;15.07;8.00;;;;;;;13.75;100.00;68293.75;5013170;28;20048;-85
2022/06/10 06:11:59;;;;;;;14.07;7.75;;;;;;;13.79;100.00;68297.16;5030877;28;20033;-85
2022/06/10 06:14:26;;;;;;;13.55;8.95;;;;;;;13.85;100.00;68312.56;5014117;28;20049;-86
2022/06/10 06:16:55;;;;;;;14.63;8.20;;;;;;;13.88;100.00;68315.41;5028937;28;20033;-85
2022/06/10 06:19:21;;;;;;;;;;;;;;;13.84;100.00;68305.50;5021558;28;20046;-85
2022/06/10 06:21:46;;;;;;;14.90;8.43;;;;;;;;;;5021427;28;19966;-86
2022/06/10 06:24:12;;;;;;;14.40;8.45;;;;;;;13.90;100.00;68312.91;5017337;28;20101;-85
2022/06/10 06:26:37;;;;;;;17.73;8.15;;;;;;;13.96;100.00;68319.16;5015240;28;20041;-83
2022/06/10 06:29:03;;;;;;;15.25;8.13;;;;;;;13.98;100.00;68321.44;5017214;28;20052;-83
2022/06/10 06:31:28;;;;;;;13.60;7.97;;;;;;;14.00;100.00;68321.03;5014477;28;20042;-83
2022/06/10 06:33:54;;;;;;;13.32;7.28;;;;;;;13.98;100.00;68322.03;5030279;28;20052;-84
2022/06/10 06:36:24;;;;;;;12.80;7.72;;;;;;;13.99;100.00;68320.47;5034909;28;20097;-83
2022/06/10 06:38:50;;;;;;;14.15;8.02;;;;;;;14.00;100.00;68324.28;5030642;28;20044;-84
2022/06/10 06:41:17;;;;;;;23.30;8.57;;;;;;;13.98;100.00;68319.34;5021758;28;20041;-83
2022/06/10 06:43:42;;;;;;;20.58;8.90;;;;;;;13.92;100.00;68319.97;5024731;28;20029;-83
2022/06/10 06:46:11;;;;;;;13.75;8.27;;;;;;;13.92;100.00;68311.94;5015616;28;20041;-83
2022/06/10 06:48:36;;;;;;;11.98;7.47;;;;;;;;;;5019369;28;20077;-83
2022/06/10 06:51:02;;;;;;;13.38;6.88;;;;;;;13.88;100.00;68310.06;5033165;28;20072;-83
2022/06/10 06:53:27;;;;;;;13.05;8.70;;;;;;;;;;5032947;28;20400;-83
2022/06/10 06:55:52;;;;;;;14.02;7.75;;;;;;;13.86;100.00;68307.78;5030412;28;20045;-83
2022/06/10 06:58:18;;;;;;;14.52;8.13;;;;;;;13.91;100.00;68310.81;5029148;28;20060;-83
2022/06/10 07:00:44;;;;;;;14.10;8.52;;;;;;;13.90;100.00;68312.34;5030665;28;20057;-84
2022/06/10 07:03:09;;;;;;;19.15;9.43;;;;;;;13.94;100.00;68316.88;5028275;28;20054;-84
2022/06/10 07:05:35;;;;;;;13.73;9.15;;;;;;;13.98;100.00;68318.75;5010532;28;20640;-84
2022/06/10 07:08:01;;;;;;;13.45;8.70;;;;;;;;;;5026632;28;20566;-84
2022/06/10 07:10:26;;;;;;;17.30;8.75;;;;;;;14.03;100.00;68324.44;5010579;28;20049;-83
2022/06/10 07:12:52;;;;;;;15.60;8.65;;;;;;;14.11;100.00;68336.22;5009937;28;20049;-84
2022/06/10 07:15:17;;;;;;;12.02;8.30;;;;;;;;;;5032645;28;20279;-83
2022/06/10 07:17:43;;;;;;;13.40;8.05;;;;;;;14.14;100.00;68339.09;5014507;28;20041;-84
2022/06/10 07:20:11;;;;;;;16.80;8.32;;;;;;;;;;5029808;28;20046;-84
2022/06/10 07:22:37;;;;;;;15.75;8.02;;;;;;;14.27;100.00;68353.31;5012476;28;20127;-84
2022/06/10 07:25:03;;;;;;;11.85;8.02;;;;;;;14.28;100.00;68354.44;5028883;28;20669;-84
2022/06/10 07:27:28;;;;;;;13.60;9.57;;;;;;;14.36;100.00;68364.13;5031559;28;20145;-84
2022/06/10 07:29:54;;;;;;;10.45;7.63;;;;;;;;;;5030600;28;20045;-83
2022/06/10 07:32:19;;;;;;;15.52;8.07;;;;;;;14.56;100.00;68383.09;5032952;28;20045;-83
2022/06/10 07:34:44;;;;;;;12.65;7.43;;;;;;;14.60;100.00;68390.88;5019483;28;20120;-83
2022/06/10 07:37:10;;;;;;;14.82;7.15;;;;;;;14.60;100.00;68390.88;5033046;28;20053;-83
2022/06/10 07:39:35;;;;;;;13.30;6.88;;;;;;;;;;5016151;28;20041;-83
2022/06/10 07:42:02;;;;;;;10.90;6.30;;;;;;;14.75;100.00;68406.81;5030741;28;20042;-83
2022/06/10 07:44:30;;;;;;;11.63;6.03;;;;;;;14.80;100.00;68412.53;5031088;28;20034;-83
2022/06/10 07:46:57;;;;;;;11.57;5.60;;;;;;;;;;5017902;28;20073;-83
2022/06/10 07:49:22;;;;;;;13.23;5.82;;;;;;;15.07;100.00;68443.25;5035345;28;20128;-83
2022/06/10 07:51:47;;;;;;;9.68;4.88;;;;;;;15.12;100.00;68446.28;5035776;28;20096;-83
2022/06/10 07:54:14;;;;;;;13.32;6.35;;;;;;;15.14;100.00;68450.13;5033933;28;20068;-83
2022/06/10 07:56:39;;;;;;;11.55;4.55;;;;;;;15.19;100.00;68456.38;5025127;28;20040;-83
2022/06/10 07:59:05;;;;;;;8.68;4.25;;;;;;;15.23;100.00;68460.94;5033835;28;20050;-83
2022/06/10 08:01:31;;;;;;;10.88;4.40;;;;;;;15.33;100.00;68471.75;5033517;28;20065;-83
2022/06/10 08:03:57;;;;;;;10.13;4.10;;;;;;;15.39;100.00;68478.56;5035080;28;20037;-83
2022/06/10 08:06:24;;;;;;;8.93;4.20;;;;;;;15.44;100.00;68484.28;5034204;28;20586;-84
2022/06/10 08:08:50;;;;;;;11.82;4.38;;;;;;;15.56;100.00;68492.00;5013885;28;20037;-83
2022/06/10 08:11:16;;;;;;;10.40;4.88;;;;;;;15.66;100.00;68513.56;4999873;28;20515;-83
2022/06/10 08:13:42;;;;;;;10.02;4.20;;;;;;;15.68;100.00;68507.81;5027389;28;20045;-83
2022/06/10 08:16:08;;;;;;;9.68;4.55;;;;;;;15.73;100.00;68516.75;5033224;28;20029;-83
2022/06/10 08:18:34;;;;;;;9.77;4.28;;;;;;;15.86;100.00;68528.34;5033930;28;20143;-83
2022/06/10 08:23:45;;;;;;;9.30;4.53;;;;;;;;;;5030090;28;20459;-83
2022/06/10 08:26:12;;;;;;;13.70;4.95;;;;;;;16.12;100.00;68560.06;5028360;28;20042;-83
2022/06/10 08:28:40;;;;;;;10.38;4.93;;;;;;;16.22;100.00;68566.09;4997138;28;20037;-83
2022/06/10 08:31:05;;;;;;;9.43;5.00;;;;;;;16.25;100.00;68574.31;5015333;28;20029;-83
2022/06/10 08:33:31;;;;;;;9.45;4.75;;;;;;;16.29;100.00;68578.88;5034698;28;20412;-83
2022/06/10 08:35:57;;;;;;;11.50;4.72;;;;;;;16.29;100.00;68578.31;5016698;28;20047;-84
2022/06/10 08:38:22;;;;;;;9.95;5.38;;;;;;;16.43;100.00;68594.28;5035076;28;20029;-83
2022/06/10 08:41:12;;;;;;;10.05;5.18;;;;;;;16.67;100.00;68618.38;5025833;28;20042;-83
2022/06/10 08:44:00;;;;;;;11.77;4.75;;;;;;;16.87;99.75;68643.88;5034586;28;20049;-83
2022/06/10 08:46:41;;;;;;;12.60;4.53;;;;;;;16.94;97.75;68651.28;5010386;28;20140;-83
2022/06/10 08:49:06;;;;;;;9.02;4.05;;;;;;;;;;5022699;28;20501;-84
2022/06/10 08:51:45;;;;;;;17.03;4.70;;;;;;;17.27;96.82;68685.69;5033049;28;20049;-83
2022/06/10 08:54:30;;;;;;;7.38;4.28;;;;;;;17.17;94.55;68676.41;5020142;28;20351;-83
2022/06/10 08:57:02;;;;;;;10.98;5.50;;;;;;;17.22;97.00;68677.28;5023654;28;20038;-83
2022/06/10 08:59:34;;;;;;;14.68;5.65;;;;;;;17.32;97.84;68690.81;5023329;28;20092;-83
2022/06/10 09:02:21;;;;;;;9.57;4.97;;;;;;;17.32;95.91;68694.09;5034550;28;20037;-84
2022/06/10 09:05:21;;;;;;;8.88;4.32;;;;;;;17.44;95.75;68703.94;5024640;28;20081;-83
2022/06/10 09:07:54;;;;;;;10.32;3.63;;;;;;;17.45;93.91;68705.09;4981690;28;20061;-84
2022/06/10 09:10:43;;;;;;;9.65;3.60;;;;;;;17.53;94.60;68711.53;5014540;28;20046;-84
2022/06/10 09:13:21;;;;;;;11.65;3.83;;;;;;;;;;5032860;28;20068;-83
2022/06/10 09:16:12;;;;;;;6.03;2.90;;;;;;;17.60;91.13;68725.44;5033223;28;20047;-83
2022/06/10 09:18:56;;;;;;;9.98;3.10;;;;;;;17.65;92.62;68725.22;5017141;28;20563;-83
2022/06/10 09:21:37;;;;;;;9.75;2.95;;;;;;;17.72;91.60;68738.59;5023977;28;20042;-84
2022/06/10 09:24:10;;;;;;;8.00;2.67;;;;;;;17.83;91.74;68744.63;5031880;28;20250;-83
2022/06/10 09:26:39;;;;;;;5.00;2.17;;;;;;;17.76;89.90;68742.56;5032482;28;20435;-84
2022/06/10 09:29:05;;;;;;;7.18;2.58;;;;;;;17.77;90.64;68743.72;5031947;28;20460;-83
2022/06/10 09:31:45;;;;;;;7.80;2.95;;;;;;;17.81;91.35;68748.88;5032613;28;20037;-84
2022/06/10 09:34:51;;;;;;;8.57;2.33;;;;;;;17.88;89.43;68753.59;5033299;28;20045;-84
2022/06/10 09:37:34;;;;;;;4.93;2.10;;;;;;;17.91;89.59;68754.31;5028808;28;20040;-83
2022/06/10 09:43:02;;;;;;;9.40;2.22;;;;;;;18.06;89.41;68776.25;5028678;28;20121;-84
2022/06/10 09:45:57;;;;;;;6.53;2.33;;;;;;;18.27;88.91;68794.28;5016752;28;20049;-84
2022/06/10 09:48:48;;;;;;;7.30;2.33;;;;;;;18.36;88.08;68806.69;5010398;28;20212;-84
2022/06/10 09:51:32;;;;;;;6.00;1.92;;;;;;;18.42;88.94;68813.53;5028313;28;20041;-83
2022/06/10 09:54:00;;;;;;;7.45;2.72;;;;;;;18.47;87.64;68817.13;5022194;28;20056;-83
2022/06/10 09:56:31;;;;;;;6.38;2.00;;;;;;;18.46;87.48;68818.09;5044688;28;20038;-83
2022/06/10 09:59:06;;;;;;;4.90;2.13;;;;;;;18.56;86.90;68832.22;5028009;28;20052;-83
2022/06/10 10:02:07;;;;;;;6.55;1.88;;;;;;;18.68;86.43;68842.66;5058114;28;20029;-83
2022/06/10 10:04:51;;;;;;;8.32;2.17;;;;;;;18.67;85.82;68842.09;5010942;28;20045;-83
2022/06/10 10:07:26;;;;;;;6.20;2.10;;;;;;;18.84;87.36;68863.06;5031162;28;20068;-83
2022/06/10 10:10:14;;;;;;;10.73;2.20;;;;;;;18.94;85.09;68875.06;5045888;28;20048;-83
2022/06/10 10:12:56;;;;;;;5.70;1.85;;;;;;;19.00;83.37;68880.78;5023866;28;20041;-83
2022/06/10 10:15:36;;;;;;;6.65;2.25;;;;;;;18.98;82.54;68876.34;5033914;28;20041;-83
2022/06/10 10:18:31;;;;;;;6.95;1.98;;;;;;;19.19;83.25;68897.09;5029992;28;20038;-84
2022/06/10 10:21:23;;;;;;;6.90;1.52;;;;;;;19.29;82.48;68911.19;5042082;28;20083;-84
2022/06/10 10:23:51;;;;;;;4.53;1.40;;;;;;;19.33;81.46;68915.78;5046034;28;20128;-84
2022/06/10 10:26:20;;;;;;;6.45;1.52;;;;;;;19.53;81.55;68940.16;5039955;28;20048;-84
2022/06/10 10:28:47;;;;;;;4.40;1.77;;;;;;;19.48;79.28;68935.03;5045742;28;20057;-84
2022/06/10 10:31:24;;;;;;;2.58;1.25;;;;;;;19.59;80.76;68944.91;5043668;28;20041;-84
2022/06/10 10:33:50;;;;;;;3.30;1.27;;;;;;;19.55;80.66;68937.63;5045663;28;20099;-84
2022/06/10 10:36:55;;;;;;;4.18;1.48;;;;;;;19.68;80.09;68948.66;5025974;28;20084;-84
2022/06/10 10:39:33;;;;;;;4.82;1.50;;;;;;;19.67;79.94;68955.63;4990901;28;20045;-84
2022/06/10 10:42:03;;;;;;;6.45;1.40;;;;;;;19.67;78.88;68950.78;5026170;28;20448;-84
2022/06/10 10:44:32;;;;;;;5.07;1.50;;;;;;;19.78;78.51;68965.50;5030902;28;20460;-84
2022/06/10 10:47:14;;;;;;;5.13;1.20;;;;;;;19.82;79.59;68970.06;5030412;28;20489;-84
2022/06/10 10:50:06;;;;;;;7.88;1.83;;;;;;;19.79;77.64;68964.53;5031329;28;20079;-83
2022/06/10 10:52:34;;;;;;;4.78;1.88;;;;;;;19.90;79.08;68976.50;4993879;28;20045;-83
2022/06/10 10:55:07;;;;;;;4.68;1.55;;;;;;;20.01;77.11;68986.38;5030403;28;20607;-84
2022/06/10 10:58:01;;;;;;;6.47;1.52;;;;;;;20.13;79.94;69004.34;5031126;28;20045;-84
2022/06/10 11:00:33;;;;;;;7.35;1.45;;;;;;;20.29;77.96;69019.94;4996680;28;20034;-84
2022/06/10 11:03:01;;;;;;;9.07;2.00;;;;;;;20.28;75.54;69019.38;5004786;28;20405;-83
2022/06/10 11:05:32;;;;;;;10.38;1.75;;;;;;;20.27;75.74;69017.66;5030010;28;20042;-84
2022/06/10 11:08:37;;;;;;;5.68;1.58;;;;;;;20.37;76.72;69028.50;5029834;28;20540;-83
2022/06/10 11:11:17;;;;;;;5.28;1.70;;;;;;;20.39;75.17;69036.78;4978780;28;21106;-84
2022/06/10 11:13:45;;;;;;;9.73;1.85;;;;;;;20.43;76.12;69046.78;5011300;28;20084;-84
2022/06/10 11:16:26;;;;;;;7.28;1.90;;;;;;;20.59;72.51;69053.69;5010920;28;20037;-84
2022/06/10 11:18:54;;;;;;;5.78;1.70;;;;;;;20.53;73.76;69046.84;5030383;28;20041;-84
2022/06/10 11:21:23;;;;;;;4.38;1.52;;;;;;;20.70;73.63;69066.28;5027944;28;20079;-84
2022/06/10 11:23:51;;;;;;;5.60;1.58;;;;;;;20.75;73.36;69071.44;5030090;28;20056;-84
2022/06/10 11:26:20;;;;;;;8.15;1.65;;;;;;;20.67;71.73;69067.69;5029038;28;20045;-84
2022/06/10 11:28:46;;;;;;;8.98;2.25;;;;;;;20.81;73.26;69078.28;5030171;28;20033;-84
2022/06/10 11:31:21;;;;;;;7.10;1.80;;;;;;;21.02;72.10;69098.47;5022257;28;20092;-84
2022/06/10 11:33:50;;;;;;;7.60;1.90;;;;;;;20.98;69.69;69096.59;5023694;28;20041;-84
2022/06/10 11:36:27;;;;;;;11.05;1.85;;;;;;;20.98;71.03;69096.59;5017610;28;20037;-84
2022/06/10 11:39:15;;;;;;;6.07;1.92;;;;;;;21.03;70.49;69108.31;5008556;28;20045;-84
2022/06/10 11:41:40;;;;;;;6.82;1.73;;;;;;;20.94;70.49;69093.16;5014823;28;20070;-85
2022/06/10 11:44:20;;;;;;;6.47;1.90;;;;;;;20.84;70.20;69081.16;5024455;28;20061;-85
2022/06/10 11:46:53;;;;;;;9.07;1.80;;;;;;;20.88;70.77;69085.72;5027247;28;20045;-85
2022/06/10 11:49:40;;;;;;;7.88;2.00;;;;;;;20.89;71.28;69089.59;5023595;28;20038;-86
2022/06/10 11:52:13;;;;;;;9.95;2.33;;;;;;;20.85;70.12;69082.28;5009730;28;20033;-85
2022/06/10 11:54:57;;;;;;;7.05;1.60;;;;;;;20.78;69.19;69074.84;5008943;28;20037;-85
2022/06/10 12:00:41;;;;;;;8.43;1.83;;;;;;;20.93;71.53;69092.00;5028974;28;20056;-86
2022/06/10 12:03:25;;;;;;;7.00;2.45;;;;;;;20.99;69.95;69101.00;5014493;28;20057;-85
2022/06/10 12:06:09;;;;;;;6.88;2.13;;;;;;;21.23;70.39;69124.59;5029117;28;20072;-85
2022/06/10 12:08:37;;;;;;;5.38;1.50;;;;;;;21.33;69.31;69131.22;5011112;28;20052;-85
2022/06/10 12:11:17;;;;;;;10.30;2.10;;;;;;;21.28;69.15;69135.75;5027698;28;20045;-85
2022/06/10 12:13:58;;;;;;;6.82;2.25;;;;;;;21.22;69.25;69129.47;5023107;28;20061;-85
2022/06/10 12:16:25;;;;;;;8.23;2.28;;;;;;;21.21;69.45;69122.34;4994263;28;20056;-85
2022/06/10 12:18:51;;;;;;;10.07;2.30;;;;;;;21.19;69.43;69120.59;5009907;28;20056;-85
2022/06/10 12:21:21;;;;;;;8.25;2.10;;;;;;;21.21;70.30;69125.59;5010057;28;20103;-85
2022/06/10 12:23:47;;;;;;;7.10;1.90;;;;;;;21.22;67.75;69121.34;5028368;28;20041;-85
2022/06/10 12:26:20;;;;;;;5.57;2.20;;;;;;;21.25;67.15;69132.31;5024403;28;20045;-85